Time;durP1;ratioP1;P1;durP2;ratioP2;P2;SDS_P1;SDS_P2;PMS_P1;PMS_P2;Temp;Humidity;BMP_temperature;BMP_pressure;BME280_temperature;BME280_humidity;BME280_pressure;Samples;Min_cycle;Max_cycle;Signal;HPM_P1;HPM_P2
2023/11/09 00:01:18;;;;;;;;;;;;;;;;;;5100447;28;19912;-54
2023/11/09 00:03:44;;;;;;;;;;;;;;;;;;5093809;28;19917;-56
2023/11/09 00:06:10;;;;;;;;;;;;;;;;;;5092511;28;19983;-56
2023/11/09 00:08:37;;;;;;;;;;;;;;;;;;5087749;28;19976;-55
2023/11/09 00:11:02;;;;;;;;;;;;;;;;;;5094351;28;19912;-54
2023/11/09 00:13:27;;;;;;;;;;;;;;;;;;5099361;28;19920;-55
2023/11/09 00:15:55;;;;;;;;;;;;;;;;;;5103129;28;19912;-53
2023/11/09 00:18:21;;;;;;;;;;;;;;;;;;5092214;28;19979;-56
2023/11/09 00:20:48;;;;;;;;;;;;;;;;;;5106141;28;19912;-54
2023/11/09 00:23:14;;;;;;;;;;;;;;;;;;5086987;28;19920;-53
2023/11/09 00:25:39;;;;;;;;;;;;;;;;;;5097409;28;19917;-56
2023/11/09 00:28:04;;;;;;;;;;;;;;;;;;5098525;28;19975;-54
2023/11/09 00:30:32;;;;;;;;;;;;;;;;;;5102312;28;19938;-52
2023/11/09 00:32:58;;;;;;;;;;;;;;;;;;5083638;28;19913;-53
2023/11/09 00:35:23;;;;;;;;;;;;;;;;;;5088079;28;19919;-56
2023/11/09 00:37:50;;;;;;;;;;;;;;;;;;5090065;28;19927;-57
2023/11/09 00:40:15;;;;;;;;;;;;;;;;;;5100666;28;19912;-56
2023/11/09 00:42:40;;;;;;;;;;;;;;;;;;5121025;28;19912;-56
2023/11/09 00:45:06;;;;;;;;;;;;;;;;;;5090378;28;19919;-56
2023/11/09 00:47:31;;;;;;;;;;;;;;;;;;5081304;28;19923;-54
2023/11/09 00:49:57;;;;;;;;;;;;;;;;;;5101076;28;19971;-55
2023/11/09 00:52:23;;;;;;;;;;;;;;;;;;5097564;28;19951;-57
2023/11/09 00:54:51;;;;;;;;;;;;;;;;;;5116405;28;19939;-52
2023/11/09 00:57:16;;;;;;;;;;;;;;;;;;5098838;28;19920;-54
2023/11/09 00:59:46;;;;;;;;;;;;;;;;;;5093102;28;19912;-55
2023/11/09 01:02:12;;;;;;;;;;;;;;;;;;5095240;28;19913;-56
2023/11/09 01:04:37;;;;;;;;;;;;;;;;;;5114751;28;19919;-55
2023/11/09 01:07:03;;;;;;;;;;;;;;;;;;5079299;28;19984;-54
2023/11/09 01:09:28;;;;;;;;;;;;;;;;;;5097882;28;19917;-56
2023/11/09 01:11:53;;;;;;;;;;;;;;;;;;5096797;28;19913;-55
2023/11/09 01:14:20;;;;;;;;;;;;;;;;;;5109988;28;19987;-56
2023/11/09 01:16:45;;;;;;;;;;;;;;;;;;5090028;28;19912;-57
2023/11/09 01:19:11;;;;;;;;;;;;;;;;;;5084520;28;19916;-57
2023/11/09 01:21:37;;;;;;;;;;;;;;;;;;5107119;28;19912;-56
2023/11/09 01:24:02;;;;;;;;;;;;;;;;;;5097423;28;19952;-55
2023/11/09 01:26:28;;;;;;;;;;;;;;;;;;5085561;28;19912;-57
2023/11/09 01:28:53;;;;;;;;;;;;;;;;;;5098048;28;19913;-54
2023/11/09 01:31:19;;;;;;;;;;;;;;;;;;5096697;28;19912;-58
2023/11/09 01:33:44;;;;;;;;;;;;;;;;;;5075725;28;19913;-57
2023/11/09 01:36:10;;;;;;;;;;;;;;;;;;5100415;28;19916;-57
2023/11/09 01:38:35;;;;;;;;;;;;;;;;;;5081141;28;19916;-54
2023/11/09 01:41:06;;;;;;;;;;;;;;;;;;5096561;28;19935;-59
2023/11/09 01:43:32;;;;;;;;;;;;;;;;;;5123762;28;19940;-57
2023/11/09 01:45:57;;;;;;;;;;;;;;;;;;5080207;28;19924;-57
2023/11/09 01:48:23;;;;;;;;;;;;;;;;;;5079846;28;19919;-57
2023/11/09 01:50:49;;;;;;;;;;;;;;;;;;5096303;28;19993;-57
2023/11/09 01:53:14;;;;;;;;;;;;;;;;;;5114613;28;19920;-58
2023/11/09 01:55:39;;;;;;;;;;;;;;;;;;5096412;28;19983;-56
2023/11/09 01:58:05;;;;;;;;;;;;;;;;;;5112414;28;19938;-57
2023/11/09 02:00:30;;;;;;;;;;;;;;;;;;5077622;28;19940;-55
2023/11/09 02:02:56;;;;;;;;;;;;;;;;;;5097422;28;19917;-57
2023/11/09 02:05:22;;;;;;;;;;;;;;;;;;5111921;28;19912;-56
2023/11/09 02:07:47;;;;;;;;;;;;;;;;;;5121267;28;19972;-55
2023/11/09 02:10:13;;;;;;;;;;;;;;;;;;5095268;28;19920;-55
2023/11/09 02:12:39;;;;;;;;;;;;;;;;;;5097598;28;19972;-53
2023/11/09 02:15:04;;;;;;;;;;;;;;;;;;5112244;28;19935;-56
2023/11/09 02:17:30;;;;;;;;;;;;;;;;;;5100258;28;19941;-53
2023/11/09 02:19:56;;;;;;;;;;;;;;;;;;5115032;28;19934;-54
2023/11/09 02:22:21;;;;;;;;;;;;;;;;;;5092029;28;19920;-56
2023/11/09 02:24:50;;;;;;;;;;;;;;;;;;5105307;28;19912;-54
2023/11/09 02:27:15;;;;;;;;;;;;;;;;;;5130714;28;19919;-56
2023/11/09 02:29:41;;;;;;;;;;;;;;;;;;5086242;28;19913;-55
2023/11/09 02:32:07;;;;;;;;;;;;;;;;;;5112613;28;19917;-53
2023/11/09 02:34:37;;;;;;;;;;;;;;;;;;5077168;28;19925;-56
2023/11/09 02:37:02;;;;;;;;;;;;;;;;;;5096165;28;19966;-56
2023/11/09 02:39:28;;;;;;;;;;;;;;;;;;5077263;28;19916;-53
2023/11/09 02:41:53;;;;;;;;;;;;;;;;;;5094583;28;19940;-54
2023/11/09 02:44:18;;;;;;;;;;;;;;;;;;5103234;28;19920;-56
2023/11/09 02:46:44;;;;;;;;;;;;;;;;;;5097281;28;19959;-55
2023/11/09 02:49:09;;;;;;;;;;;;;;;;;;5086150;28;19916;-53
2023/11/09 02:51:35;;;;;;;;;;;;;;;;;;5094571;28;19912;-56
2023/11/09 02:54:01;;;;;;;;;;;;;;;;;;5110633;28;19924;-55
2023/11/09 02:56:26;;;;;;;;;;;;;;;;;;5098350;28;19917;-55
2023/11/09 02:58:51;;;;;;;;;;;;;;;;;;5089265;28;19939;-57
2023/11/09 03:01:17;;;;;;;;;;;;;;;;;;5102432;28;19912;-56
2023/11/09 03:03:42;;;;;;;;;;;;;;;;;;5118048;28;19912;-54
2023/11/09 03:06:08;;;;;;;;;;;;;;;;;;5100582;28;19934;-55
2023/11/09 03:08:33;;;;;;;;;;;;;;;;;;5085863;28;19948;-53
2023/11/09 03:10:58;;;;;;;;;;;;;;;;;;5098086;28;19913;-52
2023/11/09 03:13:24;;;;;;;;;;;;;;;;;;5098068;28;19912;-53
2023/11/09 03:15:50;;;;;;;;;;;;;;;;;;5098757;28;19916;-55
2023/11/09 03:18:17;;;;;;;;;;;;;;;;;;5082324;28;19935;-55
2023/11/09 03:20:44;;;;;;;;;;;;;;;;;;5101412;28;19912;-54
2023/11/09 03:23:09;;;;;;;;;;;;;;;;;;5109388;28;19952;-56
2023/11/09 03:25:35;;;;;;;;;;;;;;;;;;5098033;28;19920;-56
2023/11/09 03:28:00;;;;;;;;;;;;;;;;;;5098072;28;19958;-57
2023/11/09 03:30:30;;;;;;;;;;;;;;;;;;5081464;28;19934;-54
2023/11/09 03:32:55;;;;;;;;;;;;;;;;;;5098797;28;19924;-55
2023/11/09 03:35:20;;;;;;;;;;;;;;;;;;5099183;28;19912;-57
2023/11/09 03:37:46;;;;;;;;;;;;;;;;;;5088045;28;19915;-57
2023/11/09 03:40:12;;;;;;;;;;;;;;;;;;5099805;28;19917;-55
2023/11/09 03:42:38;;;;;;;;;;;;;;;;;;5098744;28;19913;-50
2023/11/09 03:45:03;;;;;;;;;;;;;;;;;;5099166;28;19919;-55
2023/11/09 03:47:28;;;;;;;;;;;;;;;;;;5084744;28;19956;-54
2023/11/09 03:49:54;;;;;;;;;;;;;;;;;;5102747;28;19938;-53
2023/11/09 03:52:19;;;;;;;;;;;;;;;;;;5097499;28;19913;-53
2023/11/09 03:54:45;;;;;;;;;;;;;;;;;;5110487;28;19951;-57
2023/11/09 03:57:10;;;;;;;;;;;;;;;;;;5098849;28;19946;-58
2023/11/09 03:59:35;;;;;;;;;;;;;;;;;;5098787;28;19916;-57
2023/11/09 04:02:01;;;;;;;;;;;;;;;;;;5098732;28;20000;-55
2023/11/09 04:04:26;;;;;;;;;;;;;;;;;;5085453;28;19916;-55
2023/11/09 04:06:52;;;;;;;;;;;;;;;;;;5091080;28;19913;-56
2023/11/09 04:09:17;;;;;;;;;;;;;;;;;;5100296;28;19916;-56
2023/11/09 04:11:43;;;;;;;;;;;;;;;;;;5099050;28;19913;-57
2023/11/09 04:14:09;;;;;;;;;;;;;;;;;;5107279;28;19919;-56
2023/11/09 04:16:34;;;;;;;;;;;;;;;;;;5099079;28;19913;-56
2023/11/09 04:19:00;;;;;;;;;;;;;;;;;;5108074;28;19925;-55
2023/11/09 04:21:25;;;;;;;;;;;;;;;;;;5096842;28;19912;-56
2023/11/09 04:23:50;;;;;;;;;;;;;;;;;;5108744;28;19944;-57
2023/11/09 04:26:16;;;;;;;;;;;;;;;;;;5106021;28;19919;-55
2023/11/09 04:28:42;;;;;;;;;;;;;;;;;;5103154;28;19913;-56
2023/11/09 04:31:10;;;;;;;;;;;;;;;;;;5096978;28;19919;-57
2023/11/09 04:33:36;;;;;;;;;;;;;;;;;;5098689;28;19966;-55
2023/11/09 04:36:05;;;;;;;;;;;;;;;;;;5107204;28;19913;-56
2023/11/09 04:38:32;;;;;;;;;;;;;;;;;;5100613;28;19920;-56
2023/11/09 04:41:05;;;;;;;;;;;;;;;;;;5094874;28;19958;-55
2023/11/09 04:43:31;;;;;;;;;;;;;;;;;;5097027;28;19946;-55
2023/11/09 04:46:05;;;;;;;;;;;;;;;;;;5105055;28;19912;-56
2023/11/09 04:48:31;;;;;;;;;;;;;;;;;;5095130;28;20773;-56
2023/11/09 04:51:01;;;;;;;;;;;;;;;;;;5095918;28;19909;-54
2023/11/09 04:53:41;;;;;;;;;;;;;;;;;;5096087;28;19912;-56
2023/11/09 04:56:19;;;;;;;;;;;;;;;;;;5097294;28;19934;-54
2023/11/09 04:58:49;;;;;;;;;;;;;;;;;;5104274;28;19982;-57
2023/11/09 05:06:49;;;;;;;;;;;;;;;;;;5084454;28;19913;-55
2023/11/09 05:09:14;;;;;;;;;;;;;;;;;;5104680;28;19923;-57
2023/11/09 05:11:39;;;;;;;;;;;;;;;;;;5096144;28;19920;-56
2023/11/09 05:14:05;;;;;;;;;;;;;;;;;;5099801;28;19912;-55
2023/11/09 05:16:30;;;;;;;;;;;;;;;;;;5107060;28;19951;-54
2023/11/09 05:18:56;;;;;;;;;;;;;;;;;;5100172;28;20006;-54
2023/11/09 05:21:23;;;;;;;;;;;;;;;;;;5095657;28;19912;-56
2023/11/09 05:23:48;;;;;;;;;;;;;;;;;;5096601;28;19912;-56
2023/11/09 05:26:15;;;;;;;;;;;;;;;;;;5095894;28;19928;-55
2023/11/09 05:28:40;;;;;;;;;;;;;;;;;;5097901;28;19916;-53
2023/11/09 05:31:08;;;;;;;;;;;;;;;;;;5095900;28;19943;-54
2023/11/09 05:33:33;;;;;;;;;;;;;;;;;;5096408;28;19917;-57
2023/11/09 05:36:00;;;;;;;;;;;;;;;;;;5097655;28;19919;-54
2023/11/09 05:38:25;;;;;;;;;;;;;;;;;;5095590;28;19924;-55
2023/11/09 05:40:51;;;;;;;;;;;;;;;;;;5095628;28;19951;-52
2023/11/09 05:43:17;;;;;;;;;;;;;;;;;;5095504;28;19927;-54
2023/11/09 05:45:44;;;;;;;;;;;;;;;;;;5093907;28;19913;-54
2023/11/09 05:48:09;;;;;;;;;;;;;;;;;;5092945;28;19999;-52
2023/11/09 05:50:35;;;;;;;;;;;;;;;;;;5107524;28;19912;-53
2023/11/09 05:53:01;;;;;;;;;;;;;;;;;;5098121;28;19923;-54
2023/11/09 05:55:27;;;;;;;;;;;;;;;;;;5099210;28;19912;-53
2023/11/09 05:57:52;;;;;;;;;;;;;;;;;;5111514;28;19938;-53
2023/11/09 06:00:18;;;;;;;;;;;;;;;;;;5109324;28;19913;-54
2023/11/09 06:02:43;;;;;;;;;;;;;;;;;;5104715;28;19920;-54
2023/11/09 06:05:09;;;;;;;;;;;;;;;;;;5101048;28;19917;-54
2023/11/09 06:07:35;;;;;;;;;;;;;;;;;;5104917;28;19942;-57
2023/11/09 06:10:00;;;;;;;;;;;;;;;;;;5106211;28;19912;-52
2023/11/09 06:12:25;;;;;;;;;;;;;;;;;;5093662;28;19933;-56
2023/11/09 06:14:51;;;;;;;;;;;;;;;;;;5105583;28;19935;-56
2023/11/09 06:17:17;;;;;;;;;;;;;;;;;;5102616;28;19938;-55
2023/11/09 06:19:43;;;;;;;;;;;;;;;;;;5103669;28;19947;-55
2023/11/09 06:22:09;;;;;;;;;;;;;;;;;;5098367;28;19939;-58
2023/11/09 06:24:36;;;;;;;;;;;;;;;;;;5106385;28;19971;-59
2023/11/09 06:27:02;;;;;;;;;;;;;;;;;;5106255;28;19908;-60
2023/11/09 06:29:28;;;;;;;;;;;;;;;;;;5114643;28;19916;-59
2023/11/09 06:31:53;;;;;;;;;;;;;;;;;;5089223;28;19989;-59
2023/11/09 06:34:18;;;;;;;;;;;;;;;;;;5099040;28;19958;-61
2023/11/09 06:36:47;;;;;;;;;;;;;;;;;;5089270;28;19916;-59
2023/11/09 06:39:16;;;;;;;;;;;;;;;;;;5101324;28;19917;-56
2023/11/09 06:41:42;;;;;;;;;;;;;;;;;;5093454;28;19984;-58
2023/11/09 06:44:09;;;;;;;;;;;;;;;;;;5100969;28;19912;-57
2023/11/09 06:46:37;;;;;;;;;;;;;;;;;;5102709;28;19912;-58
2023/11/09 06:49:03;;;;;;;;;;;;;;;;;;5118629;28;19934;-58
2023/11/09 06:51:28;;;;;;;;;;;;;;;;;;5100017;28;19912;-59
2023/11/09 06:53:54;;;;;;;;;;;;;;;;;;5099808;28;19951;-59
2023/11/09 06:56:20;;;;;;;;;;;;;;;;;;5099464;28;19923;-60
2023/11/09 06:58:46;;;;;;;;;;;;;;;;;;5091979;28;19917;-58
2023/11/09 07:01:11;;;;;;;;;;;;;;;;;;5102388;28;19912;-58
2023/11/09 07:03:38;;;;;;;;;;;;;;;;;;5102894;28;19980;-60
2023/11/09 07:06:03;;;;;;;;;;;;;;;;;;5103074;28;19911;-57
2023/11/09 07:08:28;;;;;;;;;;;;;;;;;;5111802;28;19916;-58
2023/11/09 07:10:54;;;;;;;;;;;;;;;;;;5105940;28;19983;-60
2023/11/09 07:13:19;;;;;;;;;;;;;;;;;;5104518;28;19916;-55
2023/11/09 07:15:47;;;;;;;;;;;;;;;;;;5110007;28;19920;-57
2023/11/09 07:18:12;;;;;;;;;;;;;;;;;;5105578;28;19916;-55
2023/11/09 07:20:37;;;;;;;;;;;;;;;;;;5103930;28;19938;-60
2023/11/09 07:23:06;;;;;;;;;;;;;;;;;;5116352;28;19912;-60
2023/11/09 07:25:32;;;;;;;;;;;;;;;;;;5099272;28;19912;-60
2023/11/09 07:27:58;;;;;;;;;;;;;;;;;;5110099;28;19919;-60
2023/11/09 07:30:28;;;;;;;;;;;;;;;;;;5101344;28;19912;-56
2023/11/09 07:32:54;;;;;;;;;;;;;;;;;;5117978;28;19913;-59
2023/11/09 07:35:19;;;;;;;;;;;;;;;;;;5103287;28;19920;-58
2023/11/09 07:37:45;;;;;;;;;;;;;;;;;;5105235;28;19959;-59
2023/11/09 07:40:10;;;;;;;;;;;;;;;;;;5112699;28;19918;-56
2023/11/09 07:42:36;;;;;;;;;;;;;;;;;;5117486;28;19919;-58
2023/11/09 07:45:02;;;;;;;;;;;;;;;;;;5115458;28;19912;-60
2023/11/09 07:47:27;;;;;;;;;;;;;;;;;;5099290;28;19972;-59
2023/11/09 07:49:54;;;;;;;;;;;;;;;;;;5098606;28;19919;-56
2023/11/09 07:52:19;;;;;;;;;;;;;;;;;;5087467;28;19976;-55
2023/11/09 07:54:48;;;;;;;;;;;;;;;;;;5098396;28;19912;-56
2023/11/09 07:57:14;;;;;;;;;;;;;;;;;;5118299;28;19912;-57
2023/11/09 07:59:39;;;;;;;;;;;;;;;;;;5101216;28;20009;-58
2023/11/09 08:02:07;;;;;;;;;;;;;;;;;;5089090;28;19948;-60
2023/11/09 08:04:32;;;;;;;;;;;;;;;;;;5102883;28;19946;-61
2023/11/09 08:06:58;;;;;;;;;;;;;;;;;;5107364;28;19912;-60
2023/11/09 08:09:24;;;;;;;;;;;;;;;;;;5117034;28;19967;-58
2023/11/09 08:11:50;;;;;;;;;;;;;;;;;;5097257;28;19917;-58
2023/11/09 08:14:16;;;;;;;;;;;;;;;;;;5085572;28;19944;-61
2023/11/09 08:16:41;;;;;;;;;;;;;;;;;;5097849;28;19979;-60
2023/11/09 08:19:07;;;;;;;;;;;;;;;;;;5100438;28;19920;-61
2023/11/09 08:21:34;;;;;;;;;;;;;;;;;;5106598;28;20324;-61
2023/11/09 08:24:00;;;;;;;;;;;;;;;;;;5096831;28;19992;-59
2023/11/09 08:26:26;;;;;;;;;;;;;;;;;;5102868;28;19919;-59
2023/11/09 08:28:52;;;;;;;;;;;;;;;;;;5113987;28;19912;-61
2023/11/09 08:31:19;;;;;;;;;;;;;;;;;;5115835;28;19913;-62
2023/11/09 08:33:46;;;;;;;;;;;;;;;;;;5109262;28;19912;-57
2023/11/09 08:36:11;;;;;;;;;;;;;;;;;;5113997;28;19912;-59
2023/11/09 08:38:36;;;;;;;;;;;;;;;;;;5107834;28;19920;-60
2023/11/09 08:41:02;;;;;;;;;;;;;;;;;;5107378;28;19940;-56
2023/11/09 08:43:28;;;;;;;;;;;;;;;;;;5111516;28;19943;-58
2023/11/09 08:45:53;;;;;;;;;;;;;;;;;;5113529;28;19912;-57
2023/11/09 08:48:19;;;;;;;;;;;;;;;;;;5110493;28;19919;-59
2023/11/09 08:50:46;;;;;;;;;;;;;;;;;;5093483;28;19979;-60
2023/11/09 08:53:12;;;;;;;;;;;;;;;;;;5099857;28;19924;-60
2023/11/09 08:55:39;;;;;;;;;;;;;;;;;;5086081;28;19935;-57
2023/11/09 08:58:04;;;;;;;;;;;;;;;;;;5092805;28;19925;-58
2023/11/09 09:00:32;;;;;;;;;;;;;;;;;;5096762;28;20059;-60
2023/11/09 09:02:57;;;;;;;;;;;;;;;;;;5094253;28;19920;-61
2023/11/09 09:05:23;;;;;;;;;;;;;;;;;;5082597;28;19912;-60
2023/11/09 09:07:49;;;;;;;;;;;;;;;;;;5093185;28;19923;-59
2023/11/09 09:10:16;;;;;;;;;;;;;;;;;;5084998;28;19939;-55
2023/11/09 09:12:44;;;;;;;;;;;;;;;;;;5093741;28;19912;-58
2023/11/09 09:15:13;;;;;;;;;;;;;;;;;;5095426;28;19944;-59
2023/11/09 09:17:38;;;;;;;;;;;;;;;;;;5100662;28;19943;-56
2023/11/09 09:20:04;;;;;;;;;;;;;;;;;;5086806;28;19912;-59
2023/11/09 09:22:29;;;;;;;;;;;;;;;;;;5112277;28;19920;-58
2023/11/09 09:24:55;;;;;;;;;;;;;;;;;;5111738;28;19988;-55
2023/11/09 09:27:24;;;;;;;;;;;;;;;;;;5095278;28;20354;-59
2023/11/09 09:29:49;;;;;;;;;;;;;;;;;;5113228;28;19965;-58
2023/11/09 09:32:15;;;;;;;;;;;;;;;;;;5098838;28;19913;-58
2023/11/09 09:34:41;;;;;;;;;;;;;;;;;;5114135;28;19943;-61
2023/11/09 09:37:10;;;;;;;;;;;;;;;;;;5111548;28;19912;-61
2023/11/09 09:39:37;;;;;;;;;;;;;;;;;;5098818;28;19916;-61
2023/11/09 09:42:02;;;;;;;;;;;;;;;;;;5101058;28;19971;-61
2023/11/09 09:44:29;;;;;;;;;;;;;;;;;;5101770;28;19916;-59
2023/11/09 09:46:55;;;;;;;;;;;;;;;;;;5094826;28;19909;-61
2023/11/09 09:49:21;;;;;;;;;;;;;;;;;;5112850;28;19916;-60
2023/11/09 09:51:46;;;;;;;;;;;;;;;;;;5106081;28;19920;-61
2023/11/09 09:54:13;;;;;;;;;;;;;;;;;;5107101;28;19965;-59
2023/11/09 09:56:38;;;;;;;;;;;;;;;;;;5091015;28;19913;-60
2023/11/09 09:59:04;;;;;;;;;;;;;;;;;;5088481;28;19988;-58
2023/11/09 10:01:30;;;;;;;;;;;;;;;;;;5081726;28;19932;-60
2023/11/09 10:03:55;;;;;;;;;;;;;;;;;;5088529;28;19975;-59
2023/11/09 10:06:21;;;;;;;;;;;;;;;;;;5096409;28;19920;-61
2023/11/09 10:08:46;;;;;;;;;;;;;;;;;;5094506;28;19938;-60
2023/11/09 10:11:15;;;;;;;;;;;;;;;;;;5098767;28;19935;-59
2023/11/09 10:13:40;;;;;;;;;;;;;;;;;;5102693;28;19939;-58
2023/11/09 10:16:06;;;;;;;;;;;;;;;;;;5102014;28;19912;-59
2023/11/09 10:18:33;;;;;;;;;;;;;;;;;;5106412;28;19923;-59
2023/11/09 10:20:58;;;;;;;;;;;;;;;;;;5095099;28;19919;-58
2023/11/09 10:23:23;;;;;;;;;;;;;;;;;;5094781;28;19913;-58
2023/11/09 10:25:49;;;;;;;;;;;;;;;;;;5094530;28;19912;-60
2023/11/09 10:28:14;;;;;;;;;;;;;;;;;;5094552;28;19959;-61
2023/11/09 10:30:41;;;;;;;;;;;;;;;;;;5094259;28;19924;-61
2023/11/09 10:33:07;;;;;;;;;;;;;;;;;;5108799;28;19912;-60
2023/11/09 10:35:32;;;;;;;;;;;;;;;;;;5095124;28;19919;-59
2023/11/09 10:37:58;;;;;;;;;;;;;;;;;;5094436;28;19916;-59
2023/11/09 10:40:24;;;;;;;;;;;;;;;;;;5094177;28;19917;-59
2023/11/09 10:42:50;;;;;;;;;;;;;;;;;;5105448;28;19912;-59
2023/11/09 10:45:16;;;;;;;;;;;;;;;;;;5094957;28;19979;-59
2023/11/09 10:47:42;;;;;;;;;;;;;;;;;;5094515;28;19919;-58
2023/11/09 10:50:13;;;;;;;;;;;;;;;;;;5094266;28;19912;-60
2023/11/09 10:52:39;;;;;;;;;;;;;;;;;;5095956;28;19919;-60
2023/11/09 10:55:07;;;;;;;;;;;;;;;;;;5094077;28;19951;-60
2023/11/09 10:57:32;;;;;;;;;;;;;;;;;;5105325;28;19912;-61
2023/11/09 10:59:58;;;;;;;;;;;;;;;;;;5092308;28;19926;-57
2023/11/09 11:02:27;;;;;;;;;;;;;;;;;;5106778;28;19934;-56
2023/11/09 11:04:55;;;;;;;;;;;;;;;;;;5103935;28;19916;-60
2023/11/09 11:07:21;;;;;;;;;;;;;;;;;;5093652;28;19916;-60
2023/11/09 11:09:46;;;;;;;;;;;;;;;;;;5102477;28;19912;-57
2023/11/09 11:12:12;;;;;;;;;;;;;;;;;;5113182;28;19979;-59
2023/11/09 11:14:40;;;;;;;;;;;;;;;;;;5095758;28;19912;-61
2023/11/09 11:17:07;;;;;;;;;;;;;;;;;;5106823;28;19912;-59
2023/11/09 11:19:33;;;;;;;;;;;;;;;;;;5097248;28;19981;-60
2023/11/09 11:21:58;;;;;;;;;;;;;;;;;;5097365;28;19940;-60
2023/11/09 11:24:24;;;;;;;;;;;;;;;;;;5089909;28;19913;-59
2023/11/09 11:26:49;;;;;;;;;;;;;;;;;;5090857;28;19920;-58
2023/11/09 11:29:17;;;;;;;;;;;;;;;;;;5106683;28;19923;-58
2023/11/09 11:31:42;;;;;;;;;;;;;;;;;;5085705;28;19916;-59
2023/11/09 11:34:08;;;;;;;;;;;;;;;;;;5107404;28;19937;-58
2023/11/09 11:36:34;;;;;;;;;;;;;;;;;;5084174;28;19913;-58
2023/11/09 11:39:04;;;;;;;;;;;;;;;;;;5110523;28;19916;-59
2023/11/09 11:41:29;;;;;;;;;;;;;;;;;;5092203;28;19944;-60
2023/11/09 11:43:56;;;;;;;;;;;;;;;;;;5111270;28;19919;-57
2023/11/09 11:46:22;;;;;;;;;;;;;;;;;;5099421;28;19927;-60
2023/11/09 11:48:47;;;;;;;;;;;;;;;;;;5081667;28;19912;-61
2023/11/09 11:51:15;;;;;;;;;;;;;;;;;;5088855;28;20022;-58
2023/11/09 11:53:40;;;;;;;;;;;;;;;;;;5103552;28;19927;-59
2023/11/09 11:56:14;;;;;;;;;;;;;;;;;;5104620;28;19921;-59
2023/11/09 11:58:39;;;;;;;;;;;;;;;;;;5089516;28;19916;-60
2023/11/09 12:01:04;;;;;;;;;;;;;;;;;;5105802;28;19920;-61
2023/11/09 12:03:30;;;;;;;;;;;;;;;;;;5076545;28;19920;-58
2023/11/09 12:05:56;;;;;;;;;;;;;;;;;;5107619;28;19943;-59
2023/11/09 12:08:22;;;;;;;;;;;;;;;;;;5095621;28;19944;-58
2023/11/09 12:10:47;;;;;;;;;;;;;;;;;;5102158;28;19912;-60
2023/11/09 12:13:14;;;;;;;;;;;;;;;;;;5108243;28;19912;-60
2023/11/09 12:15:40;;;;;;;;;;;;;;;;;;5109185;28;19912;-60
2023/11/09 12:18:06;;;;;;;;;;;;;;;;;;5106981;28;19927;-59
2023/11/09 12:20:33;;;;;;;;;;;;;;;;;;5094169;28;19913;-59
2023/11/09 12:22:59;;;;;;;;;;;;;;;;;;5095253;28;19916;-59
2023/11/09 12:25:28;;;;;;;;;;;;;;;;;;5077811;28;19913;-59
2023/11/09 12:27:53;;;;;;;;;;;;;;;;;;5103864;28;19988;-55
2023/11/09 12:30:19;;;;;;;;;;;;;;;;;;5093768;28;19913;-59
2023/11/09 12:32:44;;;;;;;;;;;;;;;;;;5104447;28;19924;-61
2023/11/09 12:35:11;;;;;;;;;;;;;;;;;;5093650;28;19942;-57
2023/11/09 12:37:37;;;;;;;;;;;;;;;;;;5114288;28;19900;-59
2023/11/09 12:40:04;;;;;;;;;;;;;;;;;;5098080;28;19916;-59
2023/11/09 12:42:29;;;;;;;;;;;;;;;;;;5103705;28;19912;-57
2023/11/09 12:44:56;;;;;;;;;;;;;;;;;;5109293;28;19932;-59
2023/11/09 12:47:21;;;;;;;;;;;;;;;;;;5097672;28;19983;-59
2023/11/09 12:49:49;;;;;;;;;;;;;;;;;;5099998;28;19975;-58
2023/11/09 12:52:17;;;;;;;;;;;;;;;;;;5111751;28;19920;-57
2023/11/09 12:54:45;;;;;;;;;;;;;;;;;;5099605;28;19912;-60
2023/11/09 12:57:11;;;;;;;;;;;;;;;;;;5104695;28;19912;-58
2023/11/09 12:59:46;;;;;;;;;;;;;;;;;;5108428;28;19923;-61
2023/11/09 13:02:32;;;;;;;;;;;;;;;;;;5102433;28;19912;-61
2023/11/09 13:04:57;;;;;;;;;;;;;;;;;;5097539;28;19934;-62
2023/11/09 13:07:25;;;;;;;;;;;;;;;;;;5109613;28;19912;-59
2023/11/09 13:10:18;;;;;;;;;;;;;;;;;;5130934;28;19916;-59
2023/11/09 13:12:41;;;;;;;;;;;;;;;;;;5092444;28;19909;-60
2023/11/09 13:17:45;;;;;;;;;;;;;;;;;;5103023;28;19913;-58
2023/11/09 13:20:10;;;;;;;;;;;;;;;;;;5094858;28;19955;-60
2023/11/09 13:22:38;;;;;;;;;;;;;;;;;;5095188;28;19912;-57
2023/11/09 13:25:04;;;;;;;;;;;;;;;;;;5111950;28;19935;-60
2023/11/09 13:27:30;;;;;;;;;;;;;;;;;;5095199;28;19917;-56
2023/11/09 13:29:56;;;;;;;;;;;;;;;;;;5100750;28;19977;-60
2023/11/09 13:32:27;;;;;;;;;;;;;;;;;;5100748;28;19922;-57
2023/11/09 13:35:23;;;;;;;;;;;;;;;;;;5088293;28;19912;-58
2023/11/09 13:37:48;;;;;;;;;;;;;;;;;;5103238;28;19943;-60
2023/11/09 13:42:47;;;;;;;;;;;;;;;;;;5081100;28;19912;-60
2023/11/09 13:47:58;;;;;;;;;;;;;;;;;;5090121;28;20014;-58
2023/11/09 13:50:25;;;;;;;;;;;;;;;;;;5092292;28;19912;-58
2023/11/09 13:52:51;;;;;;;;;;;;;;;;;;5087526;28;20042;-58
2023/11/09 13:58:00;;;;;;;;;;;;;;;;;;5100974;28;19924;-59
2023/11/09 14:00:36;;;;;;;;;;;;;;;;;;5097355;28;19912;-61
2023/11/09 14:03:02;;;;;;;;;;;;;;;;;;5102225;28;19931;-61
2023/11/09 14:05:28;;;;;;;;;;;;;;;;;;5102987;28;19913;-57
2023/11/09 14:07:54;;;;;;;;;;;;;;;;;;5105875;28;19927;-59
2023/11/09 14:10:28;;;;;;;;;;;;;;;;;;5093960;28;20447;-59
2023/11/09 14:12:54;;;;;;;;;;;;;;;;;;5099640;28;19923;-57
2023/11/09 14:17:51;;;;;;;;;;;;;;;;;;5093954;28;19920;-58
2023/11/09 14:20:30;;;;;;;;;;;;;;;;;;5093350;28;19917;-57
2023/11/09 14:22:55;;;;;;;;;;;;;;;;;;5092100;28;19912;-58
2023/11/09 14:25:22;;;;;;;;;;;;;;;;;;5087089;28;19959;-57
2023/11/09 14:27:48;;;;;;;;;;;;;;;;;;5094111;28;19923;-58
2023/11/09 14:30:13;;;;;;;;;;;;;;;;;;5095081;28;19919;-57
2023/11/09 14:32:39;;;;;;;;;;;;;;;;;;5092041;28;19912;-55
2023/11/09 14:35:04;;;;;;;;;;;;;;;;;;5085900;28;19920;-57
2023/11/09 14:37:32;;;;;;;;;;;;;;;;;;5093660;28;20007;-59
2023/11/09 14:40:10;;;;;;;;;;;;;;;;;;5090343;28;19917;-59
2023/11/09 14:42:36;;;;;;;;;;;;;;;;;;5092630;28;19940;-59
2023/11/09 14:45:01;;;;;;;;;;;;;;;;;;5124560;28;19923;-57
2023/11/09 14:47:35;;;;;;;;;;;;;;;;;;5107129;28;19923;-55
2023/11/09 14:50:04;;;;;;;;;;;;;;;;;;5093266;28;19954;-54
2023/11/09 14:53:01;;;;;;;;;;;;;;;;;;5107593;28;19912;-55
2023/11/09 14:55:28;;;;;;;;;;;;;;;;;;5086198;28;19912;-52
2023/11/09 14:57:53;;;;;;;;;;;;;;;;;;5107480;28;19912;-52
2023/11/09 15:00:21;;;;;;;;;;;;;;;;;;5106028;28;19912;-56
2023/11/09 15:02:46;;;;;;;;;;;;;;;;;;5100660;28;19984;-54
2023/11/09 15:05:17;;;;;;;;;;;;;;;;;;5111840;28;19922;-56
2023/11/09 15:07:46;;;;;;;;;;;;;;;;;;5108916;28;19943;-52
2023/11/09 15:10:13;;;;;;;;;;;;;;;;;;5098542;28;19912;-51
2023/11/09 15:12:38;;;;;;;;;;;;;;;;;;5096273;28;19912;-54
2023/11/09 15:15:03;;;;;;;;;;;;;;;;;;5106694;28;19934;-52
2023/11/09 15:17:28;;;;;;;;;;;;;;;;;;5107892;28;19928;-51
2023/11/09 15:19:54;;;;;;;;;;;;;;;;;;5096798;28;19917;-53
2023/11/09 15:22:20;;;;;;;;;;;;;;;;;;5109853;28;20301;-54
2023/11/09 15:24:46;;;;;;;;;;;;;;;;;;5097602;28;19923;-52
2023/11/09 15:27:14;;;;;;;;;;;;;;;;;;5099445;28;19912;-51
2023/11/09 15:29:39;;;;;;;;;;;;;;;;;;5096832;28;19984;-54
2023/11/09 15:32:05;;;;;;;;;;;;;;;;;;5104378;28;19916;-54
2023/11/09 15:34:33;;;;;;;;;;;;;;;;;;5106923;28;19957;-51
2023/11/09 15:36:59;;;;;;;;;;;;;;;;;;5112158;28;19928;-53
2023/11/09 15:39:25;;;;;;;;;;;;;;;;;;5096391;28;19917;-54
2023/11/09 15:41:50;;;;;;;;;;;;;;;;;;5113266;28;19916;-53
2023/11/09 15:44:16;;;;;;;;;;;;;;;;;;5106109;28;19914;-51
2023/11/09 15:46:44;;;;;;;;;;;;;;;;;;5111005;28;19912;-54
2023/11/09 15:49:10;;;;;;;;;;;;;;;;;;5116280;28;19912;-51
2023/11/09 15:51:37;;;;;;;;;;;;;;;;;;5108967;28;19951;-53
2023/11/09 15:54:03;;;;;;;;;;;;;;;;;;5115856;28;19938;-54
2023/11/09 15:56:29;;;;;;;;;;;;;;;;;;5112266;28;19912;-51
2023/11/09 15:58:56;;;;;;;;;;;;;;;;;;5096062;28;19959;-52
2023/11/09 16:01:21;;;;;;;;;;;;;;;;;;5112717;28;19948;-52
2023/11/09 16:03:46;;;;;;;;;;;;;;;;;;5110528;28;19912;-50
2023/11/09 16:06:12;;;;;;;;;;;;;;;;;;5107968;28;19918;-54
2023/11/09 16:08:39;;;;;;;;;;;;;;;;;;5105443;28;19923;-54
2023/11/09 16:11:07;;;;;;;;;;;;;;;;;;5110191;28;19919;-50
2023/11/09 16:13:32;;;;;;;;;;;;;;;;;;5102954;28;19913;-50
2023/11/09 16:15:58;;;;;;;;;;;;;;;;;;5113161;28;19984;-56
2023/11/09 16:18:25;;;;;;;;;;;;;;;;;;5101461;28;19992;-52
2023/11/09 16:20:51;;;;;;;;;;;;;;;;;;5093088;28;19916;-51
2023/11/09 16:23:17;;;;;;;;;;;;;;;;;;5091060;28;19913;-49
2023/11/09 16:25:46;;;;;;;;;;;;;;;;;;5093976;28;19909;-54
2023/11/09 16:28:19;;;;;;;;;;;;;;;;;;5088854;28;19976;-54
2023/11/09 16:30:45;;;;;;;;;;;;;;;;;;5092322;28;19919;-55
2023/11/09 16:33:16;;;;;;;;;;;;;;;;;;5099307;28;19941;-55
2023/11/09 16:35:42;;;;;;;;;;;;;;;;;;5095906;28;19921;-52
2023/11/09 16:38:09;;;;;;;;;;;;;;;;;;5093886;28;19927;-54
2023/11/09 16:40:34;;;;;;;;;;;;;;;;;;5089561;28;20458;-53
2023/11/09 16:42:59;;;;;;;;;;;;;;;;;;5095342;28;19909;-52
2023/11/09 16:45:24;;;;;;;;;;;;;;;;;;5093699;28;19972;-57
2023/11/09 16:47:52;;;;;;;;;;;;;;;;;;5104951;28;19916;-54
2023/11/09 16:50:18;;;;;;;;;;;;;;;;;;5093254;28;19912;-53
2023/11/09 16:52:44;;;;;;;;;;;;;;;;;;5096088;28;19983;-50
2023/11/09 16:55:11;;;;;;;;;;;;;;;;;;5104217;28;19923;-51
2023/11/09 16:57:42;;;;;;;;;;;;;;;;;;5097548;28;19919;-53
2023/11/09 17:00:08;;;;;;;;;;;;;;;;;;5102093;28;19944;-52